Currently 68°F in Pinon Hills, California, USA
68°F
74°F / 67°F
4 mph SW
0.00"
Thursday, September 23, 2021 5:38 AM PDT

Pinon Hills, California Climate Summary
Typical October Day

Normal High:    75.2°F (24.0°C)
Normal Low:    53.6°F (12.0°C)
Average:    63.8°F (17.7°C)

Hour    Temperature    Wind Speed    Humidity
12:00 AM    59°F (15°C)    3 mph    38%
1:00 AM    58°F (15°C)    3 mph    38%
2:00 AM    58°F (14°C)    3 mph    38%
3:00 AM    57°F (14°C)    3 mph    39%
4:00 AM    57°F (14°C)    3 mph    39%
5:00 AM    57°F (14°C)    3 mph    39%
6:00 AM    56°F (13°C)    3 mph    39%
7:00 AM    56°F (13°C)    3 mph    39%
8:00 AM    60°F (16°C)    2 mph    36%
9:00 AM    65°F (18°C)    2 mph    32%
10:00 AM    67°F (20°C)    2 mph    29%
11:00 AM    69°F (21°C)    3 mph    27%
12:00 PM    71°F (22°C)    3 mph    24%
1:00 PM    73°F (23°C)    3 mph    22%
2:00 PM    74°F (23°C)    3 mph    21%
3:00 PM    74°F (23°C)    3 mph    21%
4:00 PM    74°F (23°C)    3 mph    22%
5:00 PM    72°F (22°C)    3 mph    23%
6:00 PM    68°F (20°C)    2 mph    27%
7:00 PM    63°F (17°C)    3 mph    31%
8:00 PM    62°F (16°C)    3 mph    33%
9:00 PM    61°F (16°C)    3 mph    34%
10:00 PM    60°F (16°C)    3 mph    35%
11:00 PM    60°F (15°C)    3 mph    36%
 

The Pinon Hills, California weather pages are a service of WeatherCurrents.
Copyright ©2021  WeatherCurrents. All rights reserved. - Submit questions and comments - Privacy Policy